sensor_id;sensor_type;location;lat;lon;timestamp;pressure;altitude;pressure_sealevel;temperature;humidity
17362;BME280;8798;51.938;4.348;2023-06-26T00:00:06;100386.28;;;28.33;42.04
17362;BME280;8798;51.938;4.348;2023-06-26T00:02:35;100380.22;;;28.26;41.78
17362;BME280;8798;51.938;4.348;2023-06-26T00:05:04;100365.06;;;28.18;41.75
17362;BME280;8798;51.938;4.348;2023-06-26T00:07:33;100351.84;;;28.10;42.07
17362;BME280;8798;51.938;4.348;2023-06-26T00:10:02;100341.91;;;28.04;42.24
17362;BME280;8798;51.938;4.348;2023-06-26T00:12:31;100317.06;;;27.94;42.39
17362;BME280;8798;51.938;4.348;2023-06-26T00:14:59;100299.44;;;27.84;42.55
17362;BME280;8798;51.938;4.348;2023-06-26T00:17:27;100278.19;;;27.75;43.09
17362;BME280;8798;51.938;4.348;2023-06-26T00:19:56;100276.81;;;27.67;42.51
17362;BME280;8798;51.938;4.348;2023-06-26T00:22:24;100287.03;;;27.66;43.13
17362;BME280;8798;51.938;4.348;2023-06-26T00:24:52;100275.75;;;27.58;42.99
17362;BME280;8798;51.938;4.348;2023-06-26T00:27:20;100288.16;;;27.55;43.18
17362;BME280;8798;51.938;4.348;2023-06-26T00:29:48;100288.19;;;27.50;43.41
17362;BME280;8798;51.938;4.348;2023-06-26T00:32:16;100270.25;;;27.42;43.18
17362;BME280;8798;51.938;4.348;2023-06-26T00:34:44;100266.94;;;27.35;43.74
17362;BME280;8798;51.938;4.348;2023-06-26T00:37:14;100266.97;;;27.30;43.41
17362;BME280;8798;51.938;4.348;2023-06-26T00:39:42;100258.13;;;27.23;43.41
17362;BME280;8798;51.938;4.348;2023-06-26T00:42:10;100243.22;;;27.14;44.00
17362;BME280;8798;51.938;4.348;2023-06-26T00:44:38;100233.28;;;27.08;44.37
17362;BME280;8798;51.938;4.348;2023-06-26T00:47:07;100213.97;;;26.97;44.32
17362;BME280;8798;51.938;4.348;2023-06-26T00:49:35;100238.78;;;26.97;44.63
17362;BME280;8798;51.938;4.348;2023-06-26T00:52:04;100259.22;;;26.96;44.45
17362;BME280;8798;51.938;4.348;2023-06-26T00:54:33;100264.16;;;26.94;44.68
17362;BME280;8798;51.938;4.348;2023-06-26T00:57:01;100282.66;;;26.94;45.22
17362;BME280;8798;51.938;4.348;2023-06-26T00:59:29;100292.84;;;26.88;44.69
17362;BME280;8798;51.938;4.348;2023-06-26T01:01:57;100298.63;;;26.87;45.32
17362;BME280;8798;51.938;4.348;2023-06-26T01:04:25;100313.53;;;26.86;45.48
17362;BME280;8798;51.938;4.348;2023-06-26T01:06:55;100330.06;;;26.86;45.43
17362;BME280;8798;51.938;4.348;2023-06-26T01:09:23;100348.00;;;26.83;45.45
17362;BME280;8798;51.938;4.348;2023-06-26T01:11:53;100325.63;;;26.74;45.87
17362;BME280;8798;51.938;4.348;2023-06-26T01:14:21;100346.03;;;26.73;46.09
17362;BME280;8798;51.938;4.348;2023-06-26T01:16:49;100370.84;;;26.73;45.91
17362;BME280;8798;51.938;4.348;2023-06-26T01:19:20;100361.44;;;26.69;46.11
17362;BME280;8798;51.938;4.348;2023-06-26T01:21:58;100381.00;;;26.68;45.81
17362;BME280;8798;51.938;4.348;2023-06-26T01:24:33;100399.22;;;26.69;46.09
17362;BME280;8798;51.938;4.348;2023-06-26T01:27:05;100373.81;;;26.56;46.08
17362;BME280;8798;51.938;4.348;2023-06-26T01:29:35;100355.84;;;26.49;46.59
17362;BME280;8798;51.938;4.348;2023-06-26T01:32:05;100370.72;;;26.48;46.76
17362;BME280;8798;51.938;4.348;2023-06-26T01:34:33;100391.94;;;26.47;46.95
17362;BME280;8798;51.938;4.348;2023-06-26T01:37:01;100396.06;;;26.45;46.93
17362;BME280;8798;51.938;4.348;2023-06-26T01:39:29;100400.19;;;26.42;47.16
17362;BME280;8798;51.938;4.348;2023-06-26T01:41:57;100415.59;;;26.43;47.49
17362;BME280;8798;51.938;4.348;2023-06-26T01:44:29;100422.75;;;26.39;47.08
17362;BME280;8798;51.938;4.348;2023-06-26T01:47:00;100419.69;;;26.35;47.32
17362;BME280;8798;51.938;4.348;2023-06-26T01:49:36;100451.38;;;26.38;47.70
17362;BME280;8798;51.938;4.348;2023-06-26T01:52:11;100474.00;;;26.40;47.59
17362;BME280;8798;51.938;4.348;2023-06-26T01:54:48;100472.31;;;26.34;47.82
17362;BME280;8798;51.938;4.348;2023-06-26T01:57:18;100447.19;;;26.25;48.02
17362;BME280;8798;51.938;4.348;2023-06-26T01:59:52;100451.31;;;26.23;48.43
17362;BME280;8798;51.938;4.348;2023-06-26T02:02:20;100460.09;;;26.20;48.06
17362;BME280;8798;51.938;4.348;2023-06-26T02:04:48;100454.28;;;26.16;48.47
17362;BME280;8798;51.938;4.348;2023-06-26T02:07:16;100441.59;;;26.10;48.24
17362;BME280;8798;51.938;4.348;2023-06-26T02:09:44;100459.75;;;26.11;48.36
17362;BME280;8798;51.938;4.348;2023-06-26T02:12:12;100472.69;;;26.10;48.40
17362;BME280;8798;51.938;4.348;2023-06-26T02:14:40;100497.47;;;26.10;48.91
17362;BME280;8798;51.938;4.348;2023-06-26T02:17:09;100524.50;;;26.13;48.97
17362;BME280;8798;51.938;4.348;2023-06-26T02:19:37;100554.00;;;26.18;48.63
17362;BME280;8798;51.938;4.348;2023-06-26T02:22:15;100577.72;;;26.19;48.86
17362;BME280;8798;51.938;4.348;2023-06-26T02:24:43;100576.56;;;26.15;49.04
17362;BME280;8798;51.938;4.348;2023-06-26T02:27:11;100595.59;;;26.16;48.75
17362;BME280;8798;51.938;4.348;2023-06-26T02:29:40;100607.44;;;26.17;49.11
17362;BME280;8798;51.938;4.348;2023-06-26T02:32:09;100609.88;;;26.13;48.90
17362;BME280;8798;51.938;4.348;2023-06-26T02:34:37;100580.31;;;26.04;49.54
17362;BME280;8798;51.938;4.348;2023-06-26T02:37:05;100584.41;;;26.01;49.23
17362;BME280;8798;51.938;4.348;2023-06-26T02:39:34;100591.84;;;26.01;49.19
17362;BME280;8798;51.938;4.348;2023-06-26T02:42:03;100578.88;;;25.96;49.60
17362;BME280;8798;51.938;4.348;2023-06-26T02:44:31;100579.63;;;25.91;49.74
17362;BME280;8798;51.938;4.348;2023-06-26T02:46:59;100580.16;;;25.88;49.75
17362;BME280;8798;51.938;4.348;2023-06-26T02:49:29;100579.84;;;25.85;49.80
17362;BME280;8798;51.938;4.348;2023-06-26T02:51:56;100568.78;;;25.80;49.75
17362;BME280;8798;51.938;4.348;2023-06-26T02:54:24;100580.03;;;25.78;50.00
17362;BME280;8798;51.938;4.348;2023-06-26T02:56:52;100573.13;;;25.75;49.86
17362;BME280;8798;51.938;4.348;2023-06-26T02:59:20;100577.00;;;25.74;49.95
17362;BME280;8798;51.938;4.348;2023-06-26T03:01:48;100592.09;;;25.72;50.05
17362;BME280;8798;51.938;4.348;2023-06-26T03:04:16;100597.03;;;25.70;50.07
17362;BME280;8798;51.938;4.348;2023-06-26T03:06:48;100586.78;;;25.65;50.16
17362;BME280;8798;51.938;4.348;2023-06-26T03:09:16;100591.72;;;25.63;50.51
17362;BME280;8798;51.938;4.348;2023-06-26T03:11:44;100608.22;;;25.63;50.47
17362;BME280;8798;51.938;4.348;2023-06-26T03:14:12;100613.97;;;25.62;49.99
17362;BME280;8798;51.938;4.348;2023-06-26T03:16:40;100624.97;;;25.62;50.38
17362;BME280;8798;51.938;4.348;2023-06-26T03:19:08;100636.00;;;25.62;50.24
17362;BME280;8798;51.938;4.348;2023-06-26T03:21:37;100641.78;;;25.60;50.63
17362;BME280;8798;51.938;4.348;2023-06-26T03:24:06;100635.94;;;25.57;50.24
17362;BME280;8798;51.938;4.348;2023-06-26T16:37:36;101039.09;;;25.59;39.31
17362;BME280;8798;51.938;4.348;2023-06-26T16:40:06;101123.63;;;25.75;39.55
17362;BME280;8798;51.938;4.348;2023-06-26T16:42:34;101222.94;;;25.98;39.57
17362;BME280;8798;51.938;4.348;2023-06-26T16:45:02;101330.16;;;26.16;40.06
17362;BME280;8798;51.938;4.348;2023-06-26T16:47:31;101424.28;;;26.36;39.58
17362;BME280;8798;51.938;4.348;2023-06-26T16:50:05;101490.56;;;26.53;39.69
17362;BME280;8798;51.938;4.348;2023-06-26T16:52:33;101552.03;;;26.66;39.85
17362;BME280;8798;51.938;4.348;2023-06-26T16:55:04;101585.78;;;26.73;39.52
17362;BME280;8798;51.938;4.348;2023-06-26T16:57:32;101624.03;;;26.81;39.92
17362;BME280;8798;51.938;4.348;2023-06-26T17:00:00;101635.69;;;26.83;39.85
17362;BME280;8798;51.938;4.348;2023-06-26T17:02:28;101670.56;;;26.89;39.59
17362;BME280;8798;51.938;4.348;2023-06-26T17:04:57;101705.47;;;26.95;39.83
17362;BME280;8798;51.938;4.348;2023-06-26T17:07:26;101675.47;;;26.87;39.50
17362;BME280;8798;51.938;4.348;2023-06-26T17:09:56;101688.19;;;26.88;40.00
17362;BME280;8798;51.938;4.348;2023-06-26T17:12:25;101693.44;;;26.90;39.56
17362;BME280;8798;51.938;4.348;2023-06-26T17:14:53;101712.88;;;26.95;40.22
17362;BME280;8798;51.938;4.348;2023-06-26T17:17:21;101738.09;;;26.98;40.08
17362;BME280;8798;51.938;4.348;2023-06-26T17:19:49;101754.16;;;27.01;39.66
17362;BME280;8798;51.938;4.348;2023-06-26T17:22:17;101751.63;;;27.00;40.01
17362;BME280;8798;51.938;4.348;2023-06-26T17:24:45;101720.81;;;26.91;39.65
17362;BME280;8798;51.938;4.348;2023-06-26T17:27:14;101698.63;;;26.86;39.96
17362;BME280;8798;51.938;4.348;2023-06-26T17:29:45;101710.25;;;26.88;39.71
17362;BME280;8798;51.938;4.348;2023-06-26T17:32:14;101729.09;;;26.91;39.68
17362;BME280;8798;51.938;4.348;2023-06-26T17:34:48;101726.31;;;26.91;39.71
17362;BME280;8798;51.938;4.348;2023-06-26T17:37:16;101739.84;;;26.93;39.48
17362;BME280;8798;51.938;4.348;2023-06-26T17:39:45;101737.34;;;26.91;39.49
17362;BME280;8798;51.938;4.348;2023-06-26T17:42:12;101735.66;;;26.90;39.78
17362;BME280;8798;51.938;4.348;2023-06-26T17:44:41;101733.16;;;26.89;39.76
17362;BME280;8798;51.938;4.348;2023-06-26T17:47:10;101731.47;;;26.88;39.58
17362;BME280;8798;51.938;4.348;2023-06-26T17:49:39;101751.16;;;26.91;40.17
17362;BME280;8798;51.938;4.348;2023-06-26T17:52:07;101749.44;;;26.90;39.74
17362;BME280;8798;51.938;4.348;2023-06-26T17:54:35;101744.69;;;26.86;40.22
17362;BME280;8798;51.938;4.348;2023-06-26T17:57:04;101746.34;;;26.87;40.11
17362;BME280;8798;51.938;4.348;2023-06-26T17:59:32;101748.25;;;26.86;39.90
17362;BME280;8798;51.938;4.348;2023-06-26T18:02:00;101762.66;;;26.88;39.89
17362;BME280;8798;51.938;4.348;2023-06-26T18:04:31;101759.91;;;26.88;40.00
17362;BME280;8798;51.938;4.348;2023-06-26T18:06:59;101750.41;;;26.84;39.99
17362;BME280;8798;51.938;4.348;2023-06-26T18:09:27;101732.06;;;26.78;39.75
17362;BME280;8798;51.938;4.348;2023-06-26T18:11:55;101714.31;;;26.74;39.54
17362;BME280;8798;51.938;4.348;2023-06-26T18:14:22;101704.84;;;26.70;39.62
17362;BME280;8798;51.938;4.348;2023-06-26T18:16:50;101722.81;;;26.72;40.02
17362;BME280;8798;51.938;4.348;2023-06-26T18:19:18;101724.75;;;26.72;39.46
17362;BME280;8798;51.938;4.348;2023-06-26T18:21:48;101722.22;;;26.70;39.57
17362;BME280;8798;51.938;4.348;2023-06-26T18:24:16;101714.44;;;26.67;39.49
17362;BME280;8798;51.938;4.348;2023-06-26T18:26:44;101708.31;;;26.65;39.86
17362;BME280;8798;51.938;4.348;2023-06-26T18:29:12;101715.75;;;26.65;39.63
17362;BME280;8798;51.938;4.348;2023-06-26T18:31:40;101715.13;;;26.63;39.77
17362;BME280;8798;51.938;4.348;2023-06-26T18:34:08;101706.25;;;26.60;39.69
17362;BME280;8798;51.938;4.348;2023-06-26T18:36:36;101709.28;;;26.59;39.99
17362;BME280;8798;51.938;4.348;2023-06-26T18:39:05;101705.06;;;26.56;39.81
17362;BME280;8798;51.938;4.348;2023-06-26T18:41:33;101704.25;;;26.56;39.70
17362;BME280;8798;51.938;4.348;2023-06-26T18:44:01;101687.78;;;26.49;40.20
17362;BME280;8798;51.938;4.348;2023-06-26T18:46:29;101684.41;;;26.47;39.71
17362;BME280;8798;51.938;4.348;2023-06-26T18:49:01;101676.63;;;26.44;39.96
17362;BME280;8798;51.938;4.348;2023-06-26T18:51:29;101656.38;;;26.38;39.91
17362;BME280;8798;51.938;4.348;2023-06-26T18:53:58;101654.06;;;26.35;39.88
17362;BME280;8798;51.938;4.348;2023-06-26T18:56:28;101647.94;;;26.33;39.74
17362;BME280;8798;51.938;4.348;2023-06-26T18:58:57;101634.66;;;26.30;39.85
17362;BME280;8798;51.938;4.348;2023-06-26T19:01:25;101632.59;;;26.26;40.11
17362;BME280;8798;51.938;4.348;2023-06-26T19:03:53;101627.56;;;26.23;40.02
17362;BME280;8798;51.938;4.348;2023-06-26T19:06:21;101620.84;;;26.18;39.80
17362;BME280;8798;51.938;4.348;2023-06-26T19:08:49;101609.25;;;26.16;40.23
17362;BME280;8798;51.938;4.348;2023-06-26T19:11:17;101602.75;;;26.11;40.24
17362;BME280;8798;51.938;4.348;2023-06-26T19:13:46;101605.75;;;26.09;40.17
17362;BME280;8798;51.938;4.348;2023-06-26T19:16:14;101609.34;;;26.10;40.09
17362;BME280;8798;51.938;4.348;2023-06-26T19:18:43;101590.66;;;26.00;39.88
17362;BME280;8798;51.938;4.348;2023-06-26T19:21:11;101631.38;;;26.10;40.17
17362;BME280;8798;51.938;4.348;2023-06-26T19:23:39;101637.13;;;26.08;40.25
17362;BME280;8798;51.938;4.348;2023-06-26T19:26:07;101625.97;;;26.03;40.10
17362;BME280;8798;51.938;4.348;2023-06-26T19:28:35;101617.34;;;26.00;40.17
17362;BME280;8798;51.938;4.348;2023-06-26T19:31:04;101606.22;;;25.94;40.51
17362;BME280;8798;51.938;4.348;2023-06-26T19:33:32;101601.16;;;25.91;40.57
17362;BME280;8798;51.938;4.348;2023-06-26T19:36:00;101590.00;;;25.86;40.80
17362;BME280;8798;51.938;4.348;2023-06-26T19:38:28;101577.78;;;25.82;40.93
17362;BME280;8798;51.938;4.348;2023-06-26T19:40:56;101575.72;;;25.78;40.85
17362;BME280;8798;51.938;4.348;2023-06-26T19:43:24;101559.69;;;25.74;40.62
17362;BME280;8798;51.938;4.348;2023-06-26T19:45:52;101543.03;;;25.69;40.79
17362;BME280;8798;51.938;4.348;2023-06-26T19:48:21;101532.94;;;25.63;40.77
17362;BME280;8798;51.938;4.348;2023-06-26T19:50:49;101526.47;;;25.58;40.95
17362;BME280;8798;51.938;4.348;2023-06-26T19:53:17;101509.59;;;25.54;41.03
17362;BME280;8798;51.938;4.348;2023-06-26T19:55:45;101515.56;;;25.51;41.07
17362;BME280;8798;51.938;4.348;2023-06-26T19:58:13;101507.78;;;25.48;41.06
17362;BME280;8798;51.938;4.348;2023-06-26T20:00:41;101509.31;;;25.44;41.12
17362;BME280;8798;51.938;4.348;2023-06-26T20:03:10;101504.28;;;25.41;41.46
17362;BME280;8798;51.938;4.348;2023-06-26T20:05:40;101498.66;;;25.36;41.43
17362;BME280;8798;51.938;4.348;2023-06-26T20:08:08;101506.28;;;25.34;41.21
17362;BME280;8798;51.938;4.348;2023-06-26T20:10:36;101498.53;;;25.30;41.50
17362;BME280;8798;51.938;4.348;2023-06-26T20:13:04;101496.00;;;25.29;41.56
17362;BME280;8798;51.938;4.348;2023-06-26T20:15:32;101495.63;;;25.25;41.57
17362;BME280;8798;51.938;4.348;2023-06-26T20:18:00;101496.09;;;25.22;41.44
17362;BME280;8798;51.938;4.348;2023-06-26T20:20:28;101494.66;;;25.20;41.46
17362;BME280;8798;51.938;4.348;2023-06-26T20:22:58;101491.31;;;25.18;41.86
17362;BME280;8798;51.938;4.348;2023-06-26T20:25:28;101500.59;;;25.17;41.43
17362;BME280;8798;51.938;4.348;2023-06-26T20:27:56;101512.66;;;25.16;41.70
17362;BME280;8798;51.938;4.348;2023-06-26T20:30:24;101509.53;;;25.12;41.71
17362;BME280;8798;51.938;4.348;2023-06-26T20:32:52;101509.78;;;25.10;41.91
17362;BME280;8798;51.938;4.348;2023-06-26T20:35:20;101514.66;;;25.08;41.67
17362;BME280;8798;51.938;4.348;2023-06-26T20:37:48;101508.53;;;25.06;42.16
17362;BME280;8798;51.938;4.348;2023-06-26T20:40:18;101509.00;;;25.03;42.09
17362;BME280;8798;51.938;4.348;2023-06-26T20:42:47;101519.19;;;25.03;42.03
17362;BME280;8798;51.938;4.348;2023-06-26T20:45:15;101527.66;;;25.01;42.06
17362;BME280;8798;51.938;4.348;2023-06-26T20:47:44;101529.31;;;25.02;42.57
17362;BME280;8798;51.938;4.348;2023-06-26T20:50:13;101535.91;;;25.01;42.31
17362;BME280;8798;51.938;4.348;2023-06-26T20:52:42;101544.38;;;25.00;42.26
17362;BME280;8798;51.938;4.348;2023-06-26T20:55:12;101533.84;;;24.97;42.47
17362;BME280;8798;51.938;4.348;2023-06-26T20:57:41;101538.72;;;24.95;42.28
